Winchendon Springs, MA (01477)

1:27 PM EST on December 02, 2016 (GMT -0500)
Lake Monomonac | | Change Station

Elev 1047 ft 42.71 °N, 72.00 °W | Updated 27 seconds ago

Overcast
Overcast
43.0 °F
Feels Like 39 °F
N
6.0
Wind Variable Wind from WNW

Today
High -- | Low -- °F
--% Chance of Precip.
Yesterday
High -- | Low -- °F
Precip. -- in
Pressure 29.76 in
Visibility 10.0 miles
Clouds Mostly Cloudy 3500 ft
Overcast 4500 ft
Windchill 39 °F
Dew Point 32 °F
Humidity 66%
Rainfall 0.00 in
Snow Depth Not available.
7:00 AM 4:15 PM
Waxing Crescent, 10% visible
METAR KAFN 021752Z AUTO 24012G18KT 10SM BKN035 OVC045 07/M02 A2972 RMK AO2 SLP076 T00671017 10067 20022 56013
Pressure 29.76 in
Visibility 10.0 miles
Clouds Mostly Cloudy 3500 ft
Overcast 4500 ft
Windchill 39 °F
Dew Point 32 °F
Humidity 66%
Rainfall 0.00 in
Snow Depth Not available.
7:00 AM 4:15 PM
Waxing Crescent, 10% visible
METAR KAFN 021752Z AUTO 24012G18KT 10SM BKN035 OVC045 07/M02 A2972 RMK AO2 SLP076 T00671017 10067 20022 56013

10-Day Weather Forecast

Almanac

Astronomy

Dec. 02, 2016 Rise Set
Actual Time
Civil Twilight
Nautical Twilight
Astronomical Twilight
Moon
Length of Visible Light
Length of Day
Tomorrow will be .
, % of the Moon is Illuminated

Today's Extremes

State Highs State Lows

Community

WunderPhotos

Upload Photos

1,955,335 photos uploaded!

WunderBlog® & News

Nearby

Air Quality

  Air Quality AQ Index Pollutant
Not available.

Snow Depth

Station Depth Elevation

Earthquake Activity

City Distance Mag. Time & Date
Minimum magnitude displayed is 2.5.

Coastal Water Temperatures

Place Temperature

Stations

Nearby Weather Stations

Station Location Temp. Windchill Dew Point Humidity Wind Precip. Elev Updated Type
                   

Watches & Warnings

There are currently no watches in effect.